Warren, PA (16365)

2:15 PM EDT on August 31, 2015 (GMT -0400)
Brokenstraw Airport | | Change Station
CLOSE
Current Station
Personal Weather Station
Location: Pittsfield, PA
Elevation: 1235 ft
Nearby Weather Stations

Elev 1235 ft 41.83 °N, 79.36 °W | Updated 11 seconds ago

Partly Cloudy
Partly Cloudy
84.1 °F
Feels Like 89 °F
N
7.0
Wind Variable Wind from WNW
Gusts 15.0 mph

Today
High -- | Low -- °F
--% Chance of Precip.
Yesterday
High -- | Low -- °F
Precip. -- in
6:41 AM 7:52 PM
Waning Gibbous, 94% visible
Pressure 30.11 in
Visibility 10.0 miles
Clouds Few 3200 ft
Heat Index 89 °F
Dew Point 72 °F
Humidity 66%
Rainfall in
Snow Depth Not available.
UV 8 out of 12
Pollen 10.80 out of 12
Air Quality Not available.
Flu Activity Not available.
METAR KJHW 311755Z AUTO 26009KT 10SM FEW032 26/18 A3011 RMK AO1 10260 20180 57007
Pressure 30.11 in
Visibility 10.0 miles
Clouds Few 3200 ft
Heat Index 89 °F
Dew Point 72 °F
Humidity 66%
Rainfall in
Snow Depth Not available.
UV 8 out of 12
Pollen 10.80 out of 12
Air Quality Not available.
Flu Activity Not available.
METAR KJHW 311755Z AUTO 26009KT 10SM FEW032 26/18 A3011 RMK AO1 10260 20180 57007

10-Day Weather Forecast

×

Almanac

Astronomy

Aug. 31, 2015 Rise Set
Actual Time
Civil Twilight
Nautical Twilight
Astronomical Twilight
Moon
Length of Visible Light
Length of Day
Tomorrow will be .
, % of the Moon is Illuminated

Today's Extremes

State Highs State Lows

Community

WunderPhotos

Upload Photos

1,851,327 photos uploaded!

WunderBlogs® & News

Nearby

Air Quality

  Air Quality AQ Index Pollutant
Not available.

Snow Depth

Station Depth Elevation

Earthquake Activity

City Distance Mag. Time & Date
Minimum magnitude displayed is 2.5.

Coastal Water Temperatures

Place Temperature

Stations

Nearby Weather Stations

Station Location Temp. Windchill Dew Point Humidity Wind Precip. Elev Updated Type